createdAt,value
2019-03-10T00:01:09.543Z,48.50
2019-03-10T00:03:38.003Z,48.40
2019-03-10T00:06:06.629Z,48.20
2019-03-10T00:08:35.266Z,48.30
2019-03-10T00:11:03.807Z,48.20
2019-03-10T00:13:32.337Z,48.20
2019-03-10T00:16:00.881Z,48.20
2019-03-10T00:18:29.424Z,48.20
2019-03-10T00:20:57.890Z,48.70
2019-03-10T00:23:26.359Z,48.40
2019-03-10T00:25:54.819Z,48.60
2019-03-10T00:28:23.315Z,48.10
2019-03-10T00:30:51.833Z,48.10
2019-03-10T00:33:20.328Z,48.00
2019-03-10T00:35:48.787Z,47.90
2019-03-10T00:38:17.233Z,47.60
2019-03-10T00:41:05.035Z,47.50
2019-03-10T00:43:55.899Z,47.40
2019-03-10T00:46:42.307Z,47.10
2019-03-10T00:49:43.791Z,46.90
2019-03-10T00:52:21.481Z,46.70
2019-03-10T00:54:50.000Z,46.70
2019-03-10T00:57:18.569Z,46.70
2019-03-10T00:59:47.128Z,46.60
2019-03-10T01:02:15.655Z,46.50
2019-03-10T01:04:44.156Z,46.50
2019-03-10T01:07:12.847Z,46.50
2019-03-10T01:09:41.370Z,46.40
2019-03-10T01:12:09.922Z,46.20
2019-03-10T01:14:38.374Z,46.10
2019-03-10T01:17:06.845Z,46.20
2019-03-10T01:19:36.313Z,46.40
2019-03-10T01:22:04.929Z,46.40
2019-03-10T01:24:33.394Z,46.50
2019-03-10T01:27:01.934Z,46.50
2019-03-10T01:29:30.431Z,46.40
2019-03-10T01:32:04.708Z,46.40
2019-03-10T01:35:06.315Z,46.50
2019-03-10T01:37:34.797Z,46.60
2019-03-10T01:40:03.690Z,46.60
2019-03-10T01:42:32.188Z,46.60
2019-03-10T01:45:00.639Z,46.70
2019-03-10T01:47:29.165Z,46.90
2019-03-10T01:49:57.645Z,47.00
2019-03-10T01:52:26.111Z,47.10
2019-03-10T01:54:54.567Z,47.10
2019-03-10T01:57:23.057Z,47.30
2019-03-10T01:59:51.523Z,47.50
2019-03-10T02:02:25.586Z,47.60
2019-03-10T02:04:50.189Z,47.60
2019-03-10T02:07:18.642Z,47.60
2019-03-10T02:09:47.110Z,47.70
2019-03-10T02:12:15.559Z,47.70
2019-03-10T02:14:44.039Z,47.70
2019-03-10T02:17:12.569Z,47.70
2019-03-10T02:19:41.196Z,47.60
2019-03-10T02:22:09.642Z,47.60
2019-03-10T02:24:38.096Z,47.60
2019-03-10T02:27:06.651Z,47.60
2019-03-10T02:29:35.274Z,47.60
2019-03-10T02:32:03.820Z,47.60
2019-03-10T02:34:32.341Z,47.40
2019-03-10T02:37:00.819Z,47.30
2019-03-10T02:39:29.275Z,47.60
2019-03-10T02:41:57.751Z,47.10
2019-03-10T02:44:26.357Z,47.20
2019-03-10T02:46:54.840Z,47.10
2019-03-10T02:49:23.298Z,47.10
2019-03-10T02:51:51.770Z,47.10
2019-03-10T02:54:20.230Z,47.10
2019-03-10T02:56:48.704Z,47.00
2019-03-10T02:59:17.251Z,46.90
2019-03-10T03:01:45.903Z,46.90
2019-03-10T03:04:14.440Z,46.90
2019-03-10T03:06:42.934Z,47.00
2019-03-10T03:09:11.393Z,46.90
2019-03-10T03:11:40.047Z,46.90
2019-03-10T03:14:08.602Z,46.80
2019-03-10T03:16:37.137Z,46.80
2019-03-10T03:19:05.696Z,46.80
2019-03-10T03:21:43.146Z,46.90
2019-03-10T03:24:04.351Z,46.80
2019-03-10T03:26:32.984Z,46.80
2019-03-10T03:29:01.542Z,46.80
2019-03-10T03:31:30.172Z,46.70
2019-03-10T03:33:58.736Z,46.90
2019-03-10T03:36:29.618Z,46.80
2019-03-10T03:39:19.261Z,46.80
2019-03-10T03:41:47.879Z,46.80
2019-03-10T03:44:16.439Z,46.90
2019-03-10T03:46:44.964Z,46.90
2019-03-10T03:49:13.448Z,46.90
2019-03-10T03:51:41.917Z,46.90
2019-03-10T03:54:10.460Z,47.00
2019-03-10T03:56:38.915Z,47.00
2019-03-10T03:59:07.374Z,47.10
2019-03-10T04:01:37.491Z,47.20
2019-03-10T04:04:05.942Z,47.30
2019-03-10T04:06:34.436Z,47.30
2019-03-10T04:09:04.556Z,47.30
2019-03-10T04:11:33.070Z,47.30
2019-03-10T04:14:01.557Z,47.40
2019-03-10T04:16:30.032Z,47.40
2019-03-10T04:18:58.586Z,47.40
2019-03-10T04:21:27.040Z,47.40
2019-03-10T04:23:55.505Z,47.50
2019-03-10T04:26:25.617Z,47.50
2019-03-10T04:28:54.244Z,47.50
2019-03-10T04:31:43.733Z,47.50
2019-03-10T04:34:12.229Z,47.50
2019-03-10T04:36:40.713Z,47.50
2019-03-10T04:39:09.165Z,47.60
2019-03-10T04:41:37.724Z,47.70
2019-03-10T04:44:06.311Z,47.80
2019-03-10T04:46:34.781Z,47.90
2019-03-10T04:49:03.228Z,48.00
2019-03-10T04:51:31.706Z,48.00
2019-03-10T04:54:00.160Z,48.00
2019-03-10T04:56:30.447Z,48.10
2019-03-10T04:58:58.893Z,48.00
2019-03-10T05:01:27.372Z,48.00
2019-03-10T05:03:55.832Z,48.20
2019-03-10T05:06:24.292Z,48.20
2019-03-10T05:08:52.772Z,48.10
2019-03-10T05:11:21.250Z,48.00
2019-03-10T05:13:49.710Z,48.00
2019-03-10T05:16:18.251Z,47.90
2019-03-10T05:18:46.728Z,47.90
2019-03-10T05:21:15.175Z,47.90
2019-03-10T05:23:43.647Z,47.90
2019-03-10T05:26:12.172Z,47.80
2019-03-10T05:28:42.990Z,47.90
2019-03-10T05:31:11.506Z,47.90
2019-03-10T05:33:40.054Z,47.90
2019-03-10T05:36:08.508Z,48.00
2019-03-10T05:38:37.057Z,47.90
2019-03-10T05:41:05.575Z,47.80
2019-03-10T05:43:34.115Z,47.80
2019-03-10T05:46:02.662Z,47.90
2019-03-10T05:48:31.107Z,47.80
2019-03-10T05:50:59.663Z,47.90
2019-03-10T05:53:28.134Z,47.80
2019-03-10T05:55:56.679Z,47.70
2019-03-10T05:58:25.127Z,47.70
2019-03-10T06:00:53.616Z,47.60
2019-03-10T06:03:22.250Z,47.60
2019-03-10T06:05:50.726Z,47.50
2019-03-10T06:08:19.176Z,47.50
2019-03-10T06:10:47.648Z,47.50
2019-03-10T06:13:16.101Z,47.50
2019-03-10T06:15:44.589Z,47.50
2019-03-10T06:18:14.184Z,47.50
2019-03-10T06:20:42.756Z,47.50
2019-03-10T06:23:11.305Z,47.80
2019-03-10T06:25:39.764Z,47.30
2019-03-10T06:28:08.308Z,47.30
2019-03-10T06:30:36.783Z,47.10
2019-03-10T06:33:05.317Z,47.10
2019-03-10T06:35:34.038Z,47.10
2019-03-10T06:38:02.515Z,47.30
2019-03-10T06:40:32.513Z,47.40
2019-03-10T06:43:01.209Z,47.50
2019-03-10T06:45:29.664Z,47.60
2019-03-10T06:47:58.143Z,47.60
2019-03-10T06:50:26.616Z,47.70
2019-03-10T06:52:55.096Z,47.70
2019-03-10T06:55:23.598Z,47.70
2019-03-10T06:57:52.151Z,47.60
2019-03-10T07:00:20.600Z,47.60
2019-03-10T07:02:49.092Z,47.70
2019-03-10T07:05:17.549Z,47.80
2019-03-10T07:07:46.026Z,47.90
2019-03-10T07:10:17.426Z,48.00
2019-03-10T07:12:46.085Z,48.00
2019-03-10T07:15:14.797Z,48.00
2019-03-10T07:17:43.324Z,48.10
2019-03-10T07:20:19.293Z,48.10
2019-03-10T07:22:47.750Z,48.20
2019-03-10T07:25:16.302Z,48.20
2019-03-10T07:27:46.394Z,48.20
2019-03-10T07:30:19.270Z,48.40
2019-03-10T07:32:55.432Z,48.50
2019-03-10T07:35:31.333Z,48.60
2019-03-10T07:38:01.426Z,48.60
2019-03-10T07:40:52.501Z,48.60
2019-03-10T07:43:25.563Z,48.80
2019-03-10T07:45:55.754Z,48.80
2019-03-10T07:48:40.744Z,49.20
2019-03-10T07:51:10.858Z,48.80
2019-03-10T07:53:40.958Z,48.90
2019-03-10T07:56:19.880Z,49.00
2019-03-10T07:58:55.830Z,49.10
2019-03-10T08:01:41.881Z,49.20
2019-03-10T08:04:14.762Z,49.30
2019-03-10T08:06:56.936Z,49.40
2019-03-10T08:09:29.993Z,49.60
2019-03-10T08:12:06.084Z,49.70
2019-03-10T08:14:38.870Z,49.80
2019-03-10T08:17:09.002Z,49.80
2019-03-10T08:19:39.107Z,50.00
2019-03-10T08:22:12.250Z,50.00
2019-03-10T08:24:45.072Z,50.30
2019-03-10T08:27:33.104Z,50.30
2019-03-10T08:30:03.189Z,50.40
2019-03-10T08:32:33.300Z,50.50
2019-03-10T08:35:03.390Z,50.60
2019-03-10T08:37:49.818Z,50.70
2019-03-10T08:40:35.090Z,50.80
2019-03-10T08:43:05.210Z,50.70
2019-03-10T08:45:38.037Z,50.70
2019-03-10T08:48:26.050Z,50.60
2019-03-10T08:50:56.148Z,50.70
2019-03-10T08:53:41.219Z,50.90
2019-03-10T08:56:16.792Z,50.90
2019-03-10T08:58:49.880Z,51.50
2019-03-10T09:01:19.975Z,51.30
2019-03-10T09:04:07.988Z,51.40
2019-03-10T09:06:38.078Z,51.50
2019-03-10T09:09:14.961Z,51.50
2019-03-10T09:11:45.066Z,51.60
2019-03-10T09:14:15.191Z,51.70
2019-03-10T09:16:45.349Z,51.60
2019-03-10T09:19:21.258Z,51.70
2019-03-10T09:22:09.191Z,51.90
2019-03-10T09:24:41.993Z,52.00
2019-03-10T09:27:23.569Z,52.00
2019-03-10T09:29:59.427Z,52.10
2019-03-10T09:32:38.339Z,52.00
2019-03-10T09:35:08.731Z,51.90
2019-03-10T09:37:41.804Z,52.10
2019-03-10T09:40:27.937Z,52.00
2019-03-10T09:43:09.955Z,51.90
2019-03-10T09:45:45.822Z,51.90
2019-03-10T09:48:30.540Z,51.90
2019-03-10T09:51:06.525Z,52.00
2019-03-10T09:53:36.622Z,52.10
2019-03-10T09:56:09.542Z,52.20
2019-03-10T09:58:42.365Z,52.30
2019-03-10T10:01:21.334Z,52.50
2019-03-10T10:03:51.460Z,52.60
2019-03-10T10:06:24.351Z,52.90
2019-03-10T10:08:54.465Z,53.00
2019-03-10T10:11:41.007Z,53.20
2019-03-10T10:14:11.146Z,53.40
2019-03-10T10:16:41.321Z,54.00
2019-03-10T10:19:14.226Z,54.10
2019-03-10T10:21:44.350Z,54.40
2019-03-10T10:24:30.501Z,54.60
2019-03-10T10:27:03.505Z,54.70
2019-03-10T10:29:33.599Z,54.60
2019-03-10T10:32:21.202Z,54.80
2019-03-10T10:34:57.527Z,55.00
2019-03-10T10:37:30.444Z,55.00
2019-03-10T10:40:12.451Z,55.20
2019-03-10T10:42:42.575Z,55.20
2019-03-10T10:45:24.960Z,55.40
2019-03-10T10:48:10.006Z,55.50
2019-03-10T10:50:42.703Z,55.80
2019-03-10T10:53:31.015Z,56.00
2019-03-10T10:56:03.904Z,56.20
2019-03-10T10:58:36.787Z,56.60
2019-03-10T11:01:06.975Z,56.70
2019-03-10T11:03:53.380Z,56.70
2019-03-10T11:06:26.470Z,56.70
2019-03-10T11:09:08.604Z,56.60
2019-03-10T11:11:53.871Z,56.60
2019-03-10T11:14:26.643Z,56.50
2019-03-10T11:16:56.845Z,56.50
2019-03-10T11:19:26.961Z,56.70
2019-03-10T11:21:59.835Z,56.80
2019-03-10T11:24:42.239Z,56.80
2019-03-10T11:27:29.183Z,56.70
2019-03-10T11:30:08.365Z,56.70
2019-03-10T11:32:38.540Z,56.70
2019-03-10T11:35:12.839Z,56.50
2019-03-10T11:37:43.155Z,56.70
2019-03-10T11:40:16.167Z,56.60
2019-03-10T11:42:46.316Z,56.60
2019-03-10T11:45:22.484Z,56.50
2019-03-10T11:47:55.353Z,56.60
2019-03-10T11:50:25.610Z,56.60
2019-03-10T11:52:55.702Z,56.60
2019-03-10T11:55:44.140Z,56.40
2019-03-10T11:58:14.400Z,56.20
2019-03-10T12:00:44.504Z,56.30
2019-03-10T12:03:17.328Z,56.40
2019-03-10T12:05:53.289Z,56.20
2019-03-10T12:08:23.402Z,56.20
2019-03-10T12:10:51.932Z,56.30
2019-03-10T12:13:20.386Z,56.40
2019-03-10T12:15:49.117Z,56.50
2019-03-10T12:18:17.557Z,56.50
2019-03-10T12:20:46.146Z,56.30
2019-03-10T12:23:14.605Z,56.40
2019-03-10T12:25:43.062Z,56.80
2019-03-10T12:28:11.508Z,56.50
2019-03-10T12:30:40.169Z,56.30
2019-03-10T12:33:08.635Z,56.30
2019-03-10T12:35:37.082Z,56.60
2019-03-10T12:38:05.629Z,56.20
2019-03-10T12:40:34.079Z,56.40
2019-03-10T12:43:02.570Z,56.40
2019-03-10T12:45:31.010Z,56.00
2019-03-10T12:47:59.492Z,56.20
2019-03-10T12:50:28.064Z,55.90
2019-03-10T12:52:56.600Z,54.80
2019-03-10T12:55:25.274Z,54.90
2019-03-10T12:57:53.738Z,55.20
2019-03-10T13:00:22.217Z,54.20
2019-03-10T13:02:50.947Z,54.90
2019-03-10T13:05:19.424Z,55.40
2019-03-10T13:07:47.886Z,55.40
2019-03-10T13:10:16.898Z,55.90
2019-03-10T13:12:45.477Z,56.30
2019-03-10T13:15:14.069Z,56.40
2019-03-10T13:17:42.847Z,56.60
2019-03-10T13:20:12.550Z,57.00
2019-03-10T13:22:41.006Z,56.90
2019-03-10T13:25:12.764Z,56.40
2019-03-10T13:27:41.472Z,56.70
2019-03-10T13:30:15.708Z,55.70
2019-03-10T13:32:44.802Z,55.60
2019-03-10T13:35:13.899Z,55.60
2019-03-10T13:37:42.353Z,55.40
2019-03-10T13:40:13.362Z,55.20
2019-03-10T13:42:41.808Z,54.70
2019-03-10T13:45:16.196Z,54.40
2019-03-10T13:47:44.643Z,54.20
2019-03-10T13:50:15.032Z,54.30
2019-03-10T13:52:43.849Z,54.20
2019-03-10T13:55:13.030Z,54.10
2019-03-10T13:57:41.784Z,53.80
2019-03-10T14:00:20.161Z,53.90
2019-03-10T14:02:49.472Z,53.90
2019-03-10T14:05:17.918Z,53.70
2019-03-10T14:07:46.775Z,53.80
2019-03-10T14:10:15.552Z,54.00
2019-03-10T14:12:44.035Z,54.60
2019-03-10T14:15:14.258Z,54.90
2019-03-10T14:17:43.085Z,55.30
2019-03-10T14:20:13.580Z,55.60
2019-03-10T14:22:42.555Z,56.30
2019-03-10T14:25:12.772Z,55.70
2019-03-10T14:27:41.618Z,55.40
2019-03-10T14:30:20.480Z,54.60
2019-03-10T14:32:48.928Z,53.90
2019-03-10T14:35:17.726Z,53.40
2019-03-10T14:37:46.571Z,53.10
2019-03-10T14:40:22.152Z,52.00
2019-03-10T14:42:50.669Z,50.40
2019-03-10T14:45:19.688Z,51.30
2019-03-10T14:47:48.233Z,49.20
2019-03-10T14:50:20.307Z,49.20
2019-03-10T14:52:49.149Z,46.40
2019-03-10T14:55:22.623Z,45.60
2019-03-10T14:57:51.091Z,44.70
2019-03-10T15:00:26.105Z,43.80
2019-03-10T15:02:54.787Z,43.00
2019-03-10T15:05:23.332Z,42.90
2019-03-10T15:07:51.850Z,43.00
2019-03-10T15:10:20.503Z,42.80
2019-03-10T15:12:48.992Z,41.80
2019-03-10T15:15:22.673Z,41.60
2019-03-10T15:17:49.475Z,40.60
2019-03-10T15:20:21.454Z,39.80
2019-03-10T15:22:49.492Z,39.60
2019-03-10T15:25:24.964Z,39.80
2019-03-10T15:27:52.769Z,39.10
2019-03-10T15:30:25.906Z,39.00
2019-03-10T15:32:54.517Z,37.90
2019-03-10T15:35:23.037Z,38.00
2019-03-10T15:37:51.581Z,37.90
2019-03-10T15:40:20.380Z,38.20
2019-03-10T15:42:49.304Z,37.90
2019-03-10T15:45:19.059Z,38.00
2019-03-10T15:47:47.602Z,37.30
2019-03-10T15:50:31.056Z,37.30
2019-03-10T15:52:59.541Z,37.40
2019-03-10T15:55:28.088Z,36.70
2019-03-10T15:57:56.630Z,36.20
2019-03-10T16:00:26.829Z,35.60
2019-03-10T16:02:55.446Z,35.00
2019-03-10T16:05:24.030Z,35.00
2019-03-10T16:07:52.502Z,34.70
2019-03-10T16:10:21.736Z,34.70
2019-03-10T16:12:50.758Z,34.30
2019-03-10T16:15:24.021Z,34.20
2019-03-10T16:17:52.546Z,34.30
2019-03-10T16:20:21.361Z,34.80
2019-03-10T16:22:50.230Z,35.30
2019-03-10T16:25:19.353Z,36.00
2019-03-10T16:27:49.802Z,35.80
2019-03-10T16:30:20.488Z,35.90
2019-03-10T16:32:49.113Z,35.70
2019-03-10T16:35:17.719Z,35.50
2019-03-10T16:37:46.497Z,35.60
2019-03-10T16:40:16.419Z,34.90
2019-03-10T16:42:44.891Z,33.80
2019-03-10T16:45:22.138Z,33.00
2019-03-10T16:47:51.281Z,32.50
2019-03-10T16:50:21.428Z,33.00
2019-03-10T16:52:50.424Z,32.60
2019-03-10T16:55:19.289Z,32.30
2019-03-10T16:57:47.769Z,32.30
2019-03-10T17:00:19.714Z,31.00
2019-03-10T17:02:48.939Z,31.90
2019-03-10T17:05:22.314Z,31.90
2019-03-10T17:07:51.880Z,32.10
2019-03-10T17:10:27.315Z,32.30
2019-03-10T17:12:56.231Z,31.10
2019-03-10T17:15:25.665Z,31.60
2019-03-10T17:17:54.967Z,31.40
2019-03-10T17:20:23.443Z,30.00
2019-03-10T17:22:52.170Z,30.00
2019-03-10T17:25:20.644Z,30.00
2019-03-10T17:27:49.247Z,29.50
2019-03-10T17:30:19.659Z,29.40
2019-03-10T17:32:48.333Z,29.50
2019-03-10T17:35:18.220Z,29.70
2019-03-10T17:37:48.540Z,29.80
2019-03-10T17:40:23.578Z,30.00
2019-03-10T17:42:52.045Z,29.70
2019-03-10T17:45:22.766Z,29.40
2019-03-10T17:47:51.526Z,29.70
2019-03-10T17:50:20.123Z,29.70
2019-03-10T17:52:49.890Z,29.50
2019-03-10T17:55:20.679Z,29.60
2019-03-10T17:57:49.133Z,29.40
2019-03-10T18:00:20.489Z,29.20
2019-03-10T18:02:48.969Z,28.60
2019-03-10T18:05:17.551Z,28.50
2019-03-10T18:07:46.005Z,28.60
2019-03-10T18:10:18.653Z,28.20
2019-03-10T18:12:47.189Z,28.20
2019-03-10T18:15:19.912Z,28.30
2019-03-10T18:17:48.451Z,28.20
2019-03-10T18:20:22.259Z,28.30
2019-03-10T18:22:50.929Z,28.10
2019-03-10T18:25:19.478Z,28.20
2019-03-10T18:27:47.954Z,27.90
2019-03-10T18:30:20.866Z,27.90
2019-03-10T18:32:49.355Z,28.10
2019-03-10T18:35:17.869Z,27.90
2019-03-10T18:37:46.590Z,27.50
2019-03-10T18:40:20.968Z,27.70
2019-03-10T18:42:49.971Z,27.60
2019-03-10T18:45:19.967Z,27.70
2019-03-10T18:47:48.494Z,27.90
2019-03-10T18:50:24.486Z,28.30
2019-03-10T18:52:53.003Z,27.80
2019-03-10T18:55:22.221Z,27.80
2019-03-10T18:57:50.752Z,27.20
2019-03-10T19:00:22.112Z,27.30
2019-03-10T19:02:50.661Z,27.30
2019-03-10T19:05:19.461Z,27.40
2019-03-10T19:07:48.136Z,27.50
2019-03-10T19:10:16.689Z,27.40
2019-03-10T19:12:45.657Z,27.30
2019-03-10T19:15:19.549Z,27.60
2019-03-10T19:17:47.996Z,27.50
2019-03-10T19:20:16.616Z,27.40
2019-03-10T19:22:45.139Z,27.50
2019-03-10T19:25:15.817Z,27.60
2019-03-10T19:27:44.606Z,27.40
2019-03-10T19:30:20.989Z,27.70
2019-03-10T19:32:49.874Z,27.70
2019-03-10T19:35:18.419Z,27.80
2019-03-10T19:37:47.433Z,28.30
2019-03-10T19:40:21.337Z,30.20
2019-03-10T19:42:49.782Z,32.50
2019-03-10T19:45:20.335Z,33.60
2019-03-10T19:47:49.008Z,34.20
2019-03-10T19:50:27.208Z,34.60
2019-03-10T19:52:55.622Z,34.90
2019-03-10T19:55:24.071Z,35.10
2019-03-10T19:57:52.829Z,34.60
2019-03-10T20:00:22.315Z,34.70
2019-03-10T20:02:50.780Z,34.90
2019-03-10T20:05:19.496Z,35.00
2019-03-10T20:07:48.052Z,35.00
2019-03-10T20:10:18.211Z,35.20
2019-03-10T20:12:46.771Z,35.10
2019-03-10T20:15:17.167Z,35.20
2019-03-10T20:17:46.300Z,35.40
2019-03-10T20:20:26.610Z,35.40
2019-03-10T20:22:55.569Z,35.30
2019-03-10T20:25:24.319Z,35.50
2019-03-10T20:27:52.787Z,35.40
2019-03-10T20:30:25.737Z,35.40
2019-03-10T20:32:54.223Z,35.40
2019-03-10T20:35:22.848Z,35.50
2019-03-10T20:37:51.572Z,35.50
2019-03-10T20:40:24.541Z,35.50
2019-03-10T20:42:53.141Z,35.40
2019-03-10T20:45:24.283Z,35.50
2019-03-10T20:47:52.180Z,35.40
2019-03-10T20:50:21.388Z,35.60
2019-03-10T20:52:49.840Z,35.70
2019-03-10T20:55:18.384Z,35.60
2019-03-10T20:57:47.032Z,35.70
2019-03-10T21:00:26.027Z,35.80
2019-03-10T21:02:54.483Z,35.70
2019-03-10T21:05:23.546Z,35.90
2019-03-10T21:07:51.993Z,35.90
2019-03-10T21:10:29.361Z,36.10
2019-03-10T21:12:57.904Z,36.00
2019-03-10T21:15:26.834Z,36.10
2019-03-10T21:17:55.364Z,36.10
2019-03-10T21:20:24.955Z,36.20
2019-03-10T21:22:53.429Z,36.30
2019-03-10T21:25:24.270Z,36.30
2019-03-10T21:27:52.745Z,36.30
2019-03-10T21:30:25.723Z,36.30
2019-03-10T21:32:54.574Z,36.30
2019-03-10T21:35:23.274Z,36.40
2019-03-10T21:37:51.824Z,36.70
2019-03-10T21:40:30.405Z,36.80
2019-03-10T21:42:59.035Z,37.10
2019-03-10T21:45:27.625Z,37.40
2019-03-10T21:47:56.164Z,37.70
2019-03-10T21:50:24.809Z,37.80
2019-03-10T21:52:53.269Z,37.80
2019-03-10T21:55:21.734Z,37.90
2019-03-10T21:57:50.177Z,38.50
2019-03-10T22:00:19.588Z,39.00
2019-03-10T22:02:48.641Z,39.30
2019-03-10T22:05:17.842Z,39.50
2019-03-10T22:07:46.622Z,40.40
2019-03-10T22:10:26.280Z,40.00
2019-03-10T22:12:46.831Z,40.00
2019-03-10T22:15:18.964Z,40.60
2019-03-10T22:17:47.498Z,40.20
2019-03-10T22:20:20.114Z,40.50
2019-03-10T22:22:49.837Z,40.20
2019-03-10T22:25:18.877Z,40.60
2019-03-10T22:27:47.563Z,40.80
2019-03-10T22:30:19.116Z,40.90
2019-03-10T22:32:47.633Z,40.90
2019-03-10T22:35:16.321Z,41.10
2019-03-10T22:37:45.210Z,41.10
2019-03-10T22:40:15.404Z,40.80
2019-03-10T22:42:44.010Z,40.60
2019-03-10T22:45:20.384Z,40.50
2019-03-10T22:47:48.919Z,40.10
2019-03-10T22:50:17.916Z,39.80
2019-03-10T22:52:46.512Z,39.60
2019-03-10T22:55:16.095Z,39.60
2019-03-10T22:57:44.929Z,39.10
2019-03-10T23:00:16.398Z,38.70
2019-03-10T23:02:44.959Z,38.60
2019-03-10T23:05:13.553Z,38.50
2019-03-10T23:07:42.013Z,38.30
2019-03-10T23:10:13.394Z,38.40
2019-03-10T23:12:42.134Z,37.70
2019-03-10T23:15:12.614Z,37.50
2019-03-10T23:17:41.076Z,37.20
2019-03-10T23:20:14.710Z,36.70
2019-03-10T23:22:43.722Z,36.70
2019-03-10T23:25:13.318Z,36.60
2019-03-10T23:27:42.314Z,36.30
2019-03-10T23:30:16.496Z,35.80
2019-03-10T23:32:45.021Z,35.70
2019-03-10T23:35:14.320Z,35.80
2019-03-10T23:37:42.946Z,35.60
2019-03-10T23:40:13.157Z,35.40
2019-03-10T23:42:41.858Z,35.30
2019-03-10T23:45:15.727Z,35.40
2019-03-10T23:47:44.248Z,35.40
2019-03-10T23:50:19.288Z,35.90
2019-03-10T23:52:47.864Z,36.90
2019-03-10T23:55:16.320Z,37.50
2019-03-10T23:57:44.841Z,37.60
